createdAt,value
2022-11-02T00:00:55.998Z,98860.25
2022-11-02T00:03:22.431Z,98870.56
2022-11-02T00:05:48.906Z,98871.25
2022-11-02T00:08:15.308Z,98821.06
2022-11-02T00:10:42.031Z,98863.31
2022-11-02T00:13:08.428Z,98859.97
2022-11-02T00:15:36.129Z,98844.38
2022-11-02T00:18:06.031Z,98840.44
2022-11-02T00:20:32.582Z,98838.00
2022-11-02T00:23:01.597Z,98838.16
2022-11-02T00:25:29.479Z,98809.97
2022-11-02T00:27:55.950Z,98822.75
2022-11-02T00:30:22.399Z,98806.59
2022-11-02T00:32:48.791Z,98792.19
2022-11-02T00:35:15.219Z,98784.38
2022-11-02T00:37:41.595Z,98802.44
2022-11-02T00:40:08.640Z,98793.81
2022-11-02T00:42:35.128Z,98769.91
2022-11-02T00:45:01.522Z,98783.00
2022-11-02T00:47:28.167Z,98767.16
2022-11-02T00:49:54.723Z,98758.94
2022-11-02T00:52:21.192Z,98775.47
2022-11-02T00:54:47.623Z,98760.75
2022-11-02T00:57:14.053Z,98759.59
2022-11-02T00:59:40.673Z,98764.50
2022-11-02T01:02:07.151Z,98767.44
2022-11-02T01:04:33.620Z,98737.44
2022-11-02T01:07:00.049Z,98736.66
2022-11-02T01:09:26.444Z,98735.53
2022-11-02T01:11:52.920Z,98739.41
2022-11-02T01:14:19.319Z,98733.16
2022-11-02T01:19:18.009Z,98734.41
2022-11-02T01:21:44.661Z,98740.47
2022-11-02T01:24:11.177Z,98733.88
2022-11-02T01:26:37.539Z,98709.81
2022-11-02T01:29:03.930Z,98701.66
2022-11-02T01:31:30.335Z,98673.44
2022-11-02T01:33:56.753Z,98677.00
2022-11-02T01:36:23.923Z,98643.88
2022-11-02T01:38:50.394Z,98654.38
2022-11-02T01:41:18.025Z,98654.53
2022-11-02T01:43:54.152Z,98629.88
2022-11-02T01:46:24.007Z,98624.59
2022-11-02T01:49:03.660Z,98602.78
2022-11-02T01:51:39.183Z,98605.00
2022-11-02T01:54:10.489Z,98585.69
2022-11-02T01:56:40.034Z,98561.31
2022-11-02T01:59:12.905Z,98548.00
2022-11-02T02:01:39.553Z,98548.28
2022-11-02T02:04:06.052Z,98518.47
2022-11-02T02:06:33.320Z,98539.59
2022-11-02T02:09:04.302Z,98516.31
2022-11-02T02:11:36.597Z,98520.59
2022-11-02T02:14:13.131Z,98517.59
2022-11-02T02:17:03.809Z,98482.03
2022-11-02T02:19:54.750Z,98476.63
2022-11-02T02:22:36.512Z,98471.47
2022-11-02T02:25:27.824Z,98475.50
2022-11-02T02:28:32.644Z,98461.66
2022-11-02T02:31:05.205Z,98456.44
2022-11-02T02:33:43.577Z,98451.09
2022-11-02T02:36:36.941Z,98423.38
2022-11-02T02:39:17.018Z,98412.09
2022-11-02T02:41:48.338Z,98402.94
2022-11-02T02:44:20.956Z,98394.72
2022-11-02T02:47:09.082Z,98427.50
2022-11-02T02:49:41.014Z,98443.38
2022-11-02T02:52:09.607Z,98443.41
2022-11-02T02:54:42.582Z,98465.59
2022-11-02T02:57:13.519Z,98482.50
2022-11-02T02:59:43.046Z,98486.31
2022-11-02T03:02:18.002Z,98483.81
2022-11-02T03:04:44.626Z,98473.81
2022-11-02T03:07:15.928Z,98487.13
2022-11-02T03:09:51.671Z,98488.31
2022-11-02T03:12:20.752Z,98491.69
2022-11-02T03:15:02.302Z,98488.69
2022-11-02T03:17:56.077Z,98479.06
2022-11-02T03:20:26.826Z,98479.06
2022-11-02T03:23:25.177Z,98473.66
2022-11-02T03:26:25.315Z,98471.78
2022-11-02T03:28:57.854Z,98449.59
2022-11-02T03:31:33.509Z,98473.19
2022-11-02T03:34:25.235Z,98474.19
2022-11-02T03:36:58.084Z,98445.28
2022-11-02T03:39:33.857Z,98450.03
2022-11-02T03:42:03.505Z,98465.44
2022-11-02T03:44:34.389Z,98474.41
2022-11-02T03:47:01.578Z,98478.78
2022-11-02T03:49:29.914Z,98457.97
2022-11-02T03:52:01.819Z,98479.94
2022-11-02T03:54:45.799Z,98476.31
2022-11-02T03:57:17.996Z,98486.56
2022-11-02T03:59:44.873Z,98489.53
2022-11-02T04:02:13.603Z,98491.19
2022-11-02T04:04:53.568Z,98478.06
2022-11-02T04:07:27.472Z,98435.66
2022-11-02T04:09:53.816Z,98476.91
2022-11-02T04:12:39.136Z,98478.25
2022-11-02T04:15:06.749Z,98483.13
2022-11-02T04:17:51.895Z,98459.53
2022-11-02T04:20:18.298Z,98460.66
2022-11-02T04:23:03.092Z,98443.38
2022-11-02T04:25:29.469Z,98443.59
2022-11-02T04:27:55.898Z,98430.31
2022-11-02T04:30:23.562Z,98413.78
2022-11-02T04:33:09.652Z,98407.44
2022-11-02T04:35:37.664Z,98404.09
2022-11-02T04:38:23.595Z,98391.69
2022-11-02T04:41:09.914Z,98394.50
2022-11-02T04:43:36.285Z,98380.25
2022-11-02T04:46:02.723Z,98367.91
2022-11-02T04:48:29.142Z,98361.88
2022-11-02T04:50:55.541Z,98344.00
2022-11-02T04:53:21.918Z,98343.41
2022-11-02T04:55:48.338Z,98359.16
2022-11-02T04:58:14.703Z,98342.44
2022-11-02T05:00:42.918Z,98367.69
2022-11-02T05:03:12.314Z,98371.00
2022-11-02T05:05:40.438Z,98377.50
2022-11-02T05:08:07.319Z,98355.38
2022-11-02T05:10:33.955Z,98377.88
2022-11-02T05:13:01.027Z,98362.47
2022-11-02T05:15:27.749Z,98364.03
2022-11-02T05:17:54.258Z,98368.41
2022-11-02T05:20:20.972Z,98385.91
2022-11-02T05:22:47.373Z,98392.56
2022-11-02T05:25:13.801Z,98389.69
2022-11-02T05:27:40.232Z,98381.69
2022-11-02T05:30:07.074Z,98373.44
2022-11-02T05:32:33.493Z,98400.63
2022-11-02T05:34:59.850Z,98389.72
2022-11-02T05:37:26.315Z,98391.72
2022-11-02T05:39:52.690Z,98400.06
2022-11-02T05:42:19.070Z,98417.78
2022-11-02T05:44:45.429Z,98415.31
2022-11-02T05:47:11.873Z,98431.25
2022-11-02T05:49:38.301Z,98465.41
2022-11-02T05:52:05.097Z,98442.19
2022-11-02T05:54:31.482Z,98478.03
2022-11-02T05:56:57.923Z,98485.31
2022-11-02T05:59:24.334Z,98491.69
2022-11-02T06:01:50.942Z,98496.31
2022-11-02T06:04:17.548Z,98494.47
2022-11-02T06:06:44.073Z,98505.75
2022-11-02T06:09:10.426Z,98509.50
2022-11-02T06:11:37.157Z,98496.56
2022-11-02T06:14:03.755Z,98507.31
2022-11-02T06:16:31.028Z,98505.50
2022-11-02T06:18:57.484Z,98459.00
2022-11-02T06:21:23.935Z,98494.53
2022-11-02T06:23:50.858Z,98491.53
2022-11-02T06:26:17.743Z,98493.88
2022-11-02T06:28:44.183Z,98491.22
2022-11-02T06:31:10.915Z,98480.28
2022-11-02T06:33:37.283Z,98502.00
2022-11-02T06:36:04.024Z,98505.31
2022-11-02T06:38:30.478Z,98511.50
2022-11-02T06:40:59.108Z,98526.91
2022-11-02T06:43:26.380Z,98538.31
2022-11-02T06:45:57.470Z,98553.56
2022-11-02T06:48:28.615Z,98556.09
2022-11-02T06:50:57.777Z,98572.28
2022-11-02T06:53:24.381Z,98573.47
2022-11-02T06:55:55.493Z,98587.75
2022-11-02T06:58:23.281Z,98595.69
2022-11-02T07:00:50.142Z,98590.53
2022-11-02T07:03:16.932Z,98609.97
2022-11-02T07:05:50.707Z,98636.53
2022-11-02T07:08:17.105Z,98646.66
2022-11-02T07:10:43.521Z,98645.31
2022-11-02T07:13:10.060Z,98661.47
2022-11-02T07:15:36.497Z,98675.59
2022-11-02T07:18:03.422Z,98689.69
2022-11-02T07:20:30.439Z,98708.81
2022-11-02T07:23:01.782Z,98717.69
2022-11-02T07:25:32.955Z,98731.22
2022-11-02T07:28:01.437Z,98750.75
2022-11-02T07:30:29.573Z,98765.13
2022-11-02T07:32:56.354Z,98777.88
2022-11-02T07:35:22.904Z,98817.63
2022-11-02T07:38:03.275Z,98873.72
2022-11-02T07:40:30.569Z,98886.78
2022-11-02T07:42:57.607Z,98922.31
2022-11-02T07:45:24.993Z,98954.47
2022-11-02T07:47:52.182Z,98937.88
2022-11-02T07:50:21.581Z,98972.47
2022-11-02T07:52:52.976Z,99003.38
2022-11-02T07:55:22.232Z,99011.28
2022-11-02T07:58:00.086Z,99018.47
2022-11-02T08:00:28.441Z,99039.19
2022-11-02T08:02:55.991Z,99102.75
2022-11-02T08:05:22.939Z,99088.13
2022-11-02T08:08:00.003Z,99083.00
2022-11-02T08:10:27.433Z,99070.59
2022-11-02T08:12:54.688Z,99074.31
2022-11-02T08:15:21.706Z,99139.78
2022-11-02T08:17:48.148Z,99136.47
2022-11-02T08:20:14.664Z,99140.53
2022-11-02T08:22:41.286Z,99126.44
2022-11-02T08:25:08.395Z,99162.88
2022-11-02T08:27:35.245Z,99228.66
2022-11-02T08:30:01.647Z,99192.91
2022-11-02T08:32:28.040Z,99197.84
2022-11-02T08:34:54.440Z,99317.41
2022-11-02T08:37:20.897Z,99350.06
2022-11-02T08:39:47.802Z,99333.34
2022-11-02T08:42:14.165Z,99333.56
2022-11-02T08:44:42.654Z,99336.53
2022-11-02T08:47:09.725Z,99406.06
2022-11-02T08:49:36.303Z,99433.38
2022-11-02T08:52:02.728Z,99425.94
2022-11-02T08:54:29.101Z,99427.34
2022-11-02T08:56:55.528Z,99433.69
2022-11-02T08:59:21.997Z,99443.31
2022-11-02T09:01:48.548Z,99430.94
2022-11-02T09:04:15.076Z,99432.47
2022-11-02T09:06:41.532Z,99456.78
2022-11-02T09:09:08.006Z,99460.16
2022-11-02T09:11:34.427Z,99477.78
2022-11-02T09:14:00.855Z,99475.38
2022-11-02T09:16:27.310Z,99470.63
2022-11-02T09:18:53.772Z,99472.38
2022-11-02T09:21:20.155Z,99492.63
2022-11-02T09:23:48.484Z,99483.16
2022-11-02T09:26:15.832Z,99508.53
2022-11-02T09:28:42.258Z,99519.75
2022-11-02T09:31:11.523Z,99492.75
2022-11-02T09:33:38.462Z,99480.09
2022-11-02T09:36:07.152Z,99515.03
2022-11-02T09:38:33.753Z,99526.19
2022-11-02T09:41:00.093Z,99509.19
2022-11-02T09:43:32.457Z,99524.31
2022-11-02T09:46:08.014Z,99529.75
2022-11-02T09:48:45.378Z,99504.84
2022-11-02T09:51:33.406Z,99520.09
2022-11-02T09:54:17.162Z,99525.44
2022-11-02T09:56:44.956Z,99528.00
2022-11-02T09:59:15.721Z,99503.16
2022-11-02T10:02:01.020Z,99526.78
2022-11-02T10:04:58.495Z,99508.34
2022-11-02T10:07:30.897Z,99520.91
2022-11-02T10:10:13.081Z,99525.50
2022-11-02T10:12:56.750Z,99524.41
2022-11-02T10:15:43.796Z,99531.75
2022-11-02T10:18:19.212Z,99546.94
2022-11-02T10:20:48.968Z,99553.91
2022-11-02T10:23:28.399Z,99571.81
2022-11-02T10:25:55.799Z,99576.56
2022-11-02T10:28:27.439Z,99579.66
2022-11-02T10:30:54.715Z,99589.25
2022-11-02T10:33:26.994Z,99577.03
2022-11-02T10:36:23.696Z,99583.22
2022-11-02T10:39:08.449Z,99594.41
2022-11-02T10:41:56.897Z,99590.09
2022-11-02T10:44:29.282Z,99584.03
2022-11-02T10:47:12.673Z,99595.44
2022-11-02T10:49:48.300Z,99593.28
2022-11-02T10:52:16.779Z,99592.19
2022-11-02T10:54:43.278Z,99596.72
2022-11-02T10:57:14.755Z,99599.56
2022-11-02T10:59:41.225Z,99587.88
2022-11-02T11:02:11.934Z,99608.72
2022-11-02T11:04:38.342Z,99599.44
2022-11-02T11:07:13.078Z,99594.28
2022-11-02T11:09:50.296Z,99594.56
2022-11-02T11:12:22.292Z,99602.00
2022-11-02T11:20:37.112Z,99603.91
2022-11-02T11:23:10.302Z,99610.50
2022-11-02T11:25:36.787Z,99589.16
2022-11-02T11:28:22.913Z,99608.31
2022-11-02T11:31:19.559Z,99602.31
2022-11-02T11:33:55.073Z,99596.88
2022-11-02T11:36:36.282Z,99604.31
2022-11-02T11:39:07.509Z,99609.13
2022-11-02T11:41:34.965Z,99611.09
2022-11-02T11:44:03.205Z,99614.50
2022-11-02T11:46:45.713Z,99616.31
2022-11-02T11:49:35.912Z,99614.72
2022-11-02T11:52:18.744Z,99598.84
2022-11-02T11:54:53.932Z,99606.41
2022-11-02T11:57:34.349Z,99623.97
2022-11-02T12:00:04.995Z,99609.41
2022-11-02T12:02:41.011Z,99605.41
2022-11-02T12:05:20.819Z,99604.56
2022-11-02T12:08:08.898Z,99601.53
2022-11-02T12:10:42.780Z,99590.50
2022-11-02T12:13:45.208Z,99604.72
2022-11-02T12:16:42.285Z,99608.91
2022-11-02T12:19:20.712Z,99612.94
2022-11-02T12:21:58.986Z,99606.81
2022-11-02T12:24:47.065Z,99615.38
2022-11-02T12:27:41.510Z,99611.81
2022-11-02T12:30:21.085Z,99610.09
2022-11-02T12:33:13.799Z,99617.31
2022-11-02T12:35:53.272Z,99606.22
2022-11-02T12:38:45.496Z,99612.44
2022-11-02T12:41:43.531Z,99610.75
2022-11-02T12:44:18.757Z,99613.81
2022-11-02T12:47:01.047Z,99606.78
2022-11-02T12:49:49.385Z,99614.97
2022-11-02T12:53:06.081Z,99606.38
2022-11-02T12:55:38.830Z,99595.75
2022-11-02T12:58:10.186Z,99587.84
2022-11-02T13:00:41.383Z,99576.34
2022-11-02T13:03:26.865Z,99582.31
2022-11-02T13:06:02.324Z,99591.91
2022-11-02T13:08:38.947Z,99587.50
2022-11-02T13:11:12.766Z,99597.41
2022-11-02T13:13:42.323Z,99590.03
2022-11-02T13:16:10.736Z,99604.03
2022-11-02T13:18:47.625Z,99610.25
2022-11-02T13:21:18.884Z,99601.06
2022-11-02T13:23:56.848Z,99592.41
2022-11-02T13:26:41.486Z,99604.78
2022-11-02T13:29:19.217Z,99616.75
2022-11-02T13:31:51.652Z,99605.91
2022-11-02T13:34:46.881Z,99586.69
2022-11-02T13:37:22.938Z,99611.69
2022-11-02T13:39:53.894Z,99601.72
2022-11-02T13:42:43.256Z,99619.66
2022-11-02T13:45:53.366Z,99605.41
2022-11-02T13:48:48.230Z,99613.16
2022-11-02T13:51:30.783Z,99630.28
2022-11-02T13:54:21.206Z,99628.00
2022-11-02T13:56:53.803Z,99626.28
2022-11-02T13:59:30.637Z,99635.34
2022-11-02T14:01:59.531Z,99634.75
2022-11-02T14:04:27.323Z,99639.47
2022-11-02T14:07:00.592Z,99632.94
2022-11-02T14:09:36.233Z,99643.13
2022-11-02T14:12:24.685Z,99643.66
2022-11-02T14:15:29.785Z,99649.59
2022-11-02T14:18:01.636Z,99639.34
2022-11-02T14:20:39.105Z,99632.84
2022-11-02T14:23:11.369Z,99629.03
2022-11-02T14:26:00.466Z,99624.78
2022-11-02T14:28:27.228Z,99620.16
2022-11-02T14:31:05.634Z,99623.63
2022-11-02T14:33:39.607Z,99624.38
2022-11-02T14:36:40.771Z,99622.28
2022-11-02T14:39:18.144Z,99618.28
2022-11-02T14:41:56.564Z,99626.66
2022-11-02T14:44:58.474Z,99621.34
2022-11-02T14:47:30.925Z,99619.00
2022-11-02T14:50:01.069Z,99622.88
2022-11-02T14:52:29.917Z,99625.56
2022-11-02T14:55:18.371Z,99619.19
2022-11-02T14:58:00.283Z,99615.94
2022-11-02T15:00:32.487Z,99636.19
2022-11-02T15:03:00.047Z,99645.06
2022-11-02T15:05:29.462Z,99631.72
2022-11-02T15:08:02.161Z,99636.53
2022-11-02T15:10:31.306Z,99637.38
2022-11-02T15:13:19.830Z,99632.34
2022-11-02T15:15:55.366Z,99629.84
2022-11-02T15:18:31.007Z,99626.22
2022-11-02T15:21:12.898Z,99621.06
2022-11-02T15:23:52.884Z,99632.59
2022-11-02T15:26:26.660Z,99604.78
2022-11-02T15:28:56.978Z,99608.97
2022-11-02T15:31:26.288Z,99606.59
2022-11-02T15:34:02.663Z,99620.16
2022-11-02T15:36:33.953Z,99611.50
2022-11-02T15:39:03.781Z,99629.41
2022-11-02T15:41:57.581Z,99636.69
2022-11-02T15:44:27.179Z,99635.28
2022-11-02T15:47:06.078Z,99621.84
2022-11-02T15:49:50.384Z,99587.03
2022-11-02T15:52:28.848Z,99616.25
2022-11-02T15:55:31.309Z,99620.44
2022-11-02T15:58:25.804Z,99616.81
2022-11-02T16:01:05.640Z,99588.56
2022-11-02T16:03:32.694Z,99604.50
2022-11-02T16:06:03.173Z,99607.84
2022-11-02T16:08:34.779Z,99608.69
2022-11-02T16:11:19.841Z,99601.53
2022-11-02T16:14:08.026Z,99599.72
2022-11-02T16:16:36.065Z,99602.53
2022-11-02T16:19:02.718Z,99606.41
2022-11-02T16:21:29.334Z,99593.69
2022-11-02T16:23:57.522Z,99597.59
2022-11-02T16:26:27.799Z,99604.16
2022-11-02T16:29:00.121Z,99593.53
2022-11-02T16:31:31.210Z,99593.84
2022-11-02T16:34:05.249Z,99586.25
2022-11-02T16:36:36.533Z,99607.50
2022-11-02T16:39:20.842Z,99609.16
2022-11-02T16:41:50.741Z,99605.50
2022-11-02T16:44:31.240Z,99611.66
2022-11-02T16:47:06.595Z,99606.34
2022-11-02T16:49:53.827Z,99598.22
2022-11-02T16:52:23.734Z,99598.75
2022-11-02T16:54:50.500Z,99599.00
2022-11-02T16:57:23.827Z,99592.31
2022-11-02T16:59:59.444Z,99581.06
2022-11-02T17:02:38.221Z,99579.88
2022-11-02T17:05:07.305Z,99553.09
2022-11-02T17:07:41.866Z,99566.81
2022-11-02T17:10:18.173Z,99557.84
2022-11-02T17:12:45.370Z,99544.13
2022-11-02T17:15:18.724Z,99535.56
2022-11-02T17:17:45.806Z,99532.38
2022-11-02T17:20:14.876Z,99525.91
2022-11-02T17:23:01.462Z,99526.19
2022-11-02T17:25:29.671Z,99516.84
2022-11-02T17:28:01.635Z,99498.63
2022-11-02T17:30:34.278Z,99481.53
2022-11-02T17:33:06.845Z,99456.63
2022-11-02T17:35:33.700Z,99455.25
2022-11-02T17:38:01.059Z,99452.75
2022-11-02T17:40:27.559Z,99439.50
2022-11-02T17:43:00.831Z,99439.41
2022-11-02T17:45:33.498Z,99450.34
2022-11-02T17:48:01.773Z,99439.19
2022-11-02T17:50:30.808Z,99436.00
2022-11-02T17:52:58.785Z,99423.44
2022-11-02T17:55:27.773Z,99431.09
2022-11-02T17:57:55.082Z,99430.41
2022-11-02T18:00:23.257Z,99431.50
2022-11-02T18:02:55.292Z,99435.97
2022-11-02T18:05:27.792Z,99444.41
2022-11-02T18:07:56.062Z,99391.47
2022-11-02T18:10:34.287Z,99411.63
2022-11-02T18:13:00.873Z,99391.63
2022-11-02T18:15:30.364Z,99409.75
2022-11-02T18:17:56.981Z,99387.94
2022-11-02T18:20:24.355Z,99415.56
2022-11-02T18:22:50.832Z,99408.88
2022-11-02T18:25:18.343Z,99419.19
2022-11-02T18:27:46.113Z,99403.69
2022-11-02T18:30:16.105Z,99409.38
2022-11-02T18:32:43.926Z,99365.84
2022-11-02T18:35:12.956Z,99402.94
2022-11-02T18:37:40.144Z,99421.66
2022-11-02T18:40:08.110Z,99425.97
2022-11-02T18:42:39.137Z,99412.22
2022-11-02T18:45:06.914Z,99420.56
2022-11-02T18:47:33.624Z,99410.44
2022-11-02T18:50:00.758Z,99411.84
2022-11-02T18:52:32.088Z,99409.44
2022-11-02T18:55:03.406Z,99428.78
2022-11-02T18:57:30.492Z,99413.53
2022-11-02T18:59:57.067Z,99424.56
2022-11-02T19:02:23.859Z,99440.63
2022-11-02T19:04:50.337Z,99432.00
2022-11-02T19:07:35.504Z,99425.53
2022-11-02T19:10:03.898Z,99418.44
2022-11-02T19:12:30.979Z,99431.53
2022-11-02T19:14:58.008Z,99436.00
2022-11-02T19:17:26.207Z,99444.59
2022-11-02T19:19:52.858Z,99438.19
2022-11-02T19:22:22.089Z,99441.41
2022-11-02T19:24:48.867Z,99453.94
2022-11-02T19:27:20.515Z,99431.88
2022-11-02T19:29:47.255Z,99440.56
2022-11-02T19:32:14.211Z,99420.69
2022-11-02T19:34:40.755Z,99462.06
2022-11-02T19:37:08.470Z,99455.63
2022-11-02T19:39:35.092Z,99439.09
2022-11-02T19:42:03.447Z,99444.69
2022-11-02T19:44:30.588Z,99423.09
2022-11-02T19:46:56.971Z,99340.59
2022-11-02T19:49:23.374Z,99328.22
2022-11-02T19:51:49.866Z,99318.19
2022-11-02T19:54:16.371Z,99300.63
2022-11-02T19:56:42.904Z,99300.63
2022-11-02T19:59:09.326Z,99301.94
2022-11-02T20:01:38.450Z,99298.13
2022-11-02T20:04:06.034Z,99289.31
2022-11-02T20:06:38.481Z,99267.75
2022-11-02T20:09:07.619Z,99249.81
2022-11-02T20:11:36.174Z,99227.34
2022-11-02T20:14:04.982Z,99236.19
2022-11-02T20:16:31.417Z,99187.78
2022-11-02T20:18:58.940Z,99182.56
2022-11-02T20:21:32.307Z,99195.31
2022-11-02T20:24:00.389Z,99159.56
2022-11-02T20:26:32.288Z,99183.59
2022-11-02T20:29:03.106Z,99187.03
2022-11-02T20:31:35.634Z,99178.75
2022-11-02T20:34:04.908Z,99139.72
2022-11-02T20:36:31.423Z,99142.84
2022-11-02T20:38:58.283Z,99136.81
2022-11-02T20:41:25.063Z,99131.84
2022-11-02T20:43:53.393Z,99123.72
2022-11-02T20:46:41.124Z,99110.53
2022-11-02T20:49:20.677Z,99097.38
2022-11-02T20:51:48.024Z,99066.13
2022-11-02T20:54:14.501Z,99045.00
2022-11-02T20:56:40.968Z,99023.91
2022-11-02T20:59:07.410Z,99021.59
2022-11-02T21:01:34.893Z,99044.41
2022-11-02T21:04:01.792Z,99026.66
2022-11-02T21:06:28.170Z,99010.38
2022-11-02T21:08:54.716Z,98998.78
2022-11-02T21:11:39.654Z,98972.84
2022-11-02T21:14:06.044Z,98937.53
2022-11-02T21:16:33.807Z,98921.16
2022-11-02T21:19:00.287Z,98931.34
2022-11-02T21:21:26.727Z,98922.72
2022-11-02T21:23:53.231Z,98900.97
2022-11-02T21:26:19.680Z,98897.28
2022-11-02T21:28:46.227Z,98879.19
2022-11-02T21:31:16.497Z,98858.50
2022-11-02T21:33:44.005Z,98852.69
2022-11-02T21:36:10.788Z,98846.97
2022-11-02T21:38:38.386Z,98825.47
2022-11-02T21:41:06.975Z,98812.31
2022-11-02T21:43:36.745Z,98783.06
2022-11-02T21:46:05.872Z,98758.81
2022-11-02T21:48:34.531Z,98747.34
2022-11-02T21:51:15.534Z,98713.66
2022-11-02T21:53:43.743Z,98688.22
2022-11-02T21:56:12.790Z,98670.97
2022-11-02T21:58:44.670Z,98631.28
2022-11-02T22:01:31.042Z,98656.75
2022-11-02T22:03:58.413Z,98639.72
2022-11-02T22:06:30.773Z,98621.47
2022-11-02T22:08:58.044Z,98615.31
2022-11-02T22:11:27.946Z,98585.34
2022-11-02T22:13:56.122Z,98588.41
2022-11-02T22:16:28.212Z,98567.00
2022-11-02T22:19:04.250Z,98591.22
2022-11-02T22:21:33.005Z,98596.09
2022-11-02T22:24:00.102Z,98584.31
2022-11-02T22:26:29.381Z,98570.59
2022-11-02T22:28:57.737Z,98561.09
2022-11-02T22:31:26.646Z,98567.09
2022-11-02T22:33:55.779Z,98574.59
2022-11-02T22:36:24.897Z,98562.53
2022-11-02T22:38:53.764Z,98526.13
2022-11-02T22:41:26.365Z,98518.47
2022-11-02T22:44:03.828Z,98496.63
2022-11-02T22:46:32.930Z,98495.50
2022-11-02T22:49:00.403Z,98481.09
2022-11-02T22:51:28.763Z,98485.09
2022-11-02T22:53:55.665Z,98480.88
2022-11-02T22:56:23.316Z,98456.44
2022-11-02T22:58:50.503Z,98458.66
2022-11-02T23:01:20.394Z,98452.50
2022-11-02T23:03:47.734Z,98412.16
2022-11-02T23:06:15.303Z,98423.91
2022-11-02T23:08:45.499Z,98426.19
2022-11-02T23:11:22.662Z,98421.34
2022-11-02T23:13:54.049Z,98402.06
2022-11-02T23:16:28.619Z,98407.09
2022-11-02T23:19:19.003Z,98406.41
2022-11-02T23:22:22.447Z,98394.00
2022-11-02T23:25:10.017Z,98368.63
2022-11-02T23:28:16.231Z,98351.72
2022-11-02T23:31:01.844Z,98312.69
2022-11-02T23:33:33.339Z,98280.97
2022-11-02T23:36:13.715Z,98188.31
2022-11-02T23:39:00.248Z,98147.28
2022-11-02T23:41:26.872Z,98105.06
2022-11-02T23:44:11.577Z,98060.31
2022-11-02T23:46:39.162Z,97982.66
2022-11-02T23:49:05.768Z,97983.19
2022-11-02T23:51:50.930Z,97974.22
2022-11-02T23:54:36.543Z,97907.59
2022-11-02T23:57:03.229Z,97916.53
2022-11-02T23:59:29.757Z,97912.97
